createdAt,value
2024-02-24T00:00:24.328Z,5.32
2024-02-24T00:02:52.527Z,5.29
2024-02-24T00:05:20.798Z,5.28
2024-02-24T00:07:50.178Z,5.29
2024-02-24T00:10:19.037Z,5.34
2024-02-24T00:12:47.328Z,5.35
2024-02-24T00:15:15.686Z,5.34
2024-02-24T00:17:44.346Z,5.31
2024-02-24T00:20:13.066Z,5.25
2024-02-24T00:22:41.524Z,5.17
2024-02-24T00:25:09.734Z,5.11
2024-02-24T00:27:39.417Z,5.04
2024-02-24T00:30:10.726Z,5.05
2024-02-24T00:32:42.495Z,5.05
2024-02-24T00:35:10.757Z,5.04
2024-02-24T00:37:38.909Z,5.00
2024-02-24T00:40:08.742Z,4.83
2024-02-24T00:42:38.492Z,4.77
2024-02-24T00:47:55.439Z,4.72
2024-02-24T00:50:29.777Z,4.73
2024-02-24T00:52:58.209Z,4.72
2024-02-24T00:55:26.507Z,4.73
2024-02-24T00:57:58.827Z,4.74
2024-02-24T01:00:27.024Z,4.67
2024-02-24T01:02:55.294Z,4.58
2024-02-24T01:05:23.479Z,4.51
2024-02-24T01:07:57.197Z,4.51
2024-02-24T01:10:30.002Z,4.53
2024-02-24T01:12:58.273Z,4.58
2024-02-24T01:15:26.700Z,4.60
2024-02-24T01:17:58.187Z,4.65
2024-02-24T01:20:30.630Z,4.69
2024-02-24T01:23:01.409Z,4.72
2024-02-24T01:25:29.913Z,4.74
2024-02-24T01:28:01.344Z,4.72
2024-02-24T01:30:29.591Z,4.72
2024-02-24T01:32:57.988Z,4.71
2024-02-24T01:35:26.350Z,4.66
2024-02-24T01:37:54.548Z,4.57
2024-02-24T01:40:22.780Z,4.54
2024-02-24T01:42:50.944Z,4.49
2024-02-24T01:45:19.218Z,4.40
2024-02-24T01:47:47.799Z,4.39
2024-02-24T01:50:16.677Z,4.46
2024-02-24T01:52:50.654Z,4.50
2024-02-24T01:55:20.060Z,4.41
2024-02-24T01:57:52.003Z,4.31
2024-02-24T02:00:20.290Z,4.19
2024-02-24T02:02:49.063Z,4.12
2024-02-24T02:05:17.468Z,4.12
2024-02-24T02:07:45.663Z,4.11
2024-02-24T02:10:13.883Z,4.02
2024-02-24T02:12:45.086Z,3.97
2024-02-24T02:15:13.471Z,3.97
2024-02-24T02:17:41.769Z,3.98
2024-02-24T02:20:10.462Z,4.01
2024-02-24T02:22:38.687Z,4.02
2024-02-24T02:25:07.087Z,3.99
2024-02-24T02:27:35.316Z,3.98
2024-02-24T02:30:04.633Z,3.97
2024-02-24T02:32:33.269Z,3.91
2024-02-24T02:35:01.503Z,3.87
2024-02-24T02:37:29.621Z,3.83
2024-02-24T02:39:57.832Z,3.82
2024-02-24T02:42:26.018Z,3.82
2024-02-24T02:44:54.193Z,3.78
2024-02-24T02:47:24.189Z,3.75
2024-02-24T02:49:52.879Z,3.68
2024-02-24T02:52:24.575Z,3.52
2024-02-24T02:54:52.785Z,3.41
2024-02-24T02:57:21.019Z,3.31
2024-02-24T02:59:49.350Z,3.26
2024-02-24T03:02:17.660Z,3.25
2024-02-24T03:04:45.989Z,3.24
2024-02-24T03:07:14.199Z,3.29
2024-02-24T03:09:48.181Z,3.36
2024-02-24T03:12:17.069Z,3.42
2024-02-24T03:14:45.841Z,3.44
2024-02-24T03:17:14.215Z,3.50
2024-02-24T03:19:42.568Z,3.47
2024-02-24T03:22:10.784Z,3.42
2024-02-24T03:24:45.319Z,3.26
2024-02-24T03:27:13.641Z,3.16
2024-02-24T03:29:42.065Z,3.10
2024-02-24T03:32:11.635Z,3.12
2024-02-24T03:34:40.608Z,3.17
2024-02-24T03:37:08.935Z,3.14
2024-02-24T03:39:39.250Z,3.15
2024-02-24T03:42:07.567Z,3.20
2024-02-24T03:44:35.833Z,3.29
2024-02-24T03:47:04.073Z,3.20
2024-02-24T03:49:32.390Z,3.15
2024-02-24T03:52:00.624Z,3.09
2024-02-24T03:54:28.943Z,3.06
2024-02-24T03:56:57.190Z,3.08
2024-02-24T03:59:25.507Z,3.08
2024-02-24T04:01:53.876Z,3.07
2024-02-24T04:04:22.070Z,3.11
2024-02-24T04:06:50.334Z,3.13
2024-02-24T04:09:21.591Z,3.10
2024-02-24T04:11:52.080Z,3.01
2024-02-24T04:14:20.875Z,2.90
2024-02-24T04:16:49.182Z,2.95
2024-02-24T04:19:17.424Z,2.97
2024-02-24T04:21:46.238Z,2.92
2024-02-24T04:24:14.482Z,2.86
2024-02-24T04:26:43.085Z,2.94
2024-02-24T04:29:11.331Z,2.98
2024-02-24T04:31:41.252Z,3.08
2024-02-24T04:34:09.593Z,3.10
2024-02-24T04:36:44.325Z,3.02
2024-02-24T04:39:12.499Z,2.97
2024-02-24T04:41:40.987Z,2.98
2024-02-24T04:44:09.379Z,2.97
2024-02-24T04:46:39.752Z,3.00
2024-02-24T04:49:08.154Z,3.04
2024-02-24T04:51:36.446Z,3.02
2024-02-24T04:54:05.573Z,3.07
2024-02-24T04:56:33.771Z,3.12
2024-02-24T04:59:02.054Z,3.21
2024-02-24T05:01:30.483Z,3.30
2024-02-24T05:03:59.059Z,3.39
2024-02-24T05:06:30.086Z,3.44
2024-02-24T05:08:58.406Z,3.46
2024-02-24T05:11:26.861Z,3.40
2024-02-24T05:13:55.053Z,3.38
2024-02-24T05:16:23.307Z,3.29
2024-02-24T05:18:51.563Z,3.22
2024-02-24T05:21:23.530Z,3.11
2024-02-24T05:23:51.896Z,3.08
2024-02-24T05:26:27.560Z,3.09
2024-02-24T05:28:56.873Z,3.13
2024-02-24T05:31:25.183Z,3.18
2024-02-24T05:33:55.009Z,3.27
2024-02-24T05:36:23.281Z,3.37
2024-02-24T05:38:51.503Z,3.50
2024-02-24T05:41:22.682Z,3.63
2024-02-24T05:43:53.265Z,3.75
2024-02-24T05:46:21.539Z,3.87
2024-02-24T05:48:49.882Z,3.97
2024-02-24T05:51:19.441Z,4.03
2024-02-24T05:53:47.667Z,4.10
2024-02-24T05:56:15.932Z,4.12
2024-02-24T05:58:44.373Z,4.12
2024-02-24T06:01:15.837Z,4.11
2024-02-24T06:03:44.272Z,4.12
2024-02-24T06:06:12.822Z,4.07
2024-02-24T06:08:41.547Z,3.97
2024-02-24T06:11:09.877Z,3.74
2024-02-24T06:13:38.156Z,3.71
2024-02-24T06:16:07.169Z,3.79
2024-02-24T06:18:35.455Z,3.90
2024-02-24T06:21:04.578Z,4.00
2024-02-24T06:23:34.032Z,4.08
2024-02-24T06:26:02.204Z,4.13
2024-02-24T06:28:30.359Z,4.22
2024-02-24T06:30:59.601Z,4.37
2024-02-24T06:33:27.958Z,4.49
2024-02-24T06:35:56.417Z,4.57
2024-02-24T06:38:27.566Z,4.67
2024-02-24T06:40:55.824Z,4.73
2024-02-24T06:43:24.074Z,4.77
2024-02-24T06:45:52.245Z,4.93
2024-02-24T06:48:20.887Z,5.01
2024-02-24T06:50:49.278Z,5.05
2024-02-24T06:53:17.581Z,5.09
2024-02-24T06:55:45.885Z,5.25
2024-02-24T06:58:14.116Z,5.36
2024-02-24T07:00:47.354Z,5.56
2024-02-24T07:03:16.393Z,5.77
2024-02-24T07:05:46.521Z,5.90
2024-02-24T07:08:14.886Z,6.03
2024-02-24T07:10:43.149Z,6.19
2024-02-24T07:13:11.339Z,6.30
2024-02-24T07:15:39.935Z,6.41
2024-02-24T07:18:08.389Z,6.56
2024-02-24T07:20:40.511Z,6.60
2024-02-24T07:23:08.879Z,6.84
2024-02-24T07:25:38.556Z,6.87
2024-02-24T07:28:07.623Z,6.93
2024-02-24T07:30:35.764Z,7.05
2024-02-24T07:33:04.662Z,7.02
2024-02-24T07:35:36.094Z,7.22
2024-02-24T07:38:04.620Z,7.28
2024-02-24T07:40:35.133Z,7.31
2024-02-24T07:43:03.629Z,7.34
2024-02-24T07:45:31.852Z,7.38
2024-02-24T07:48:00.087Z,7.36
2024-02-24T07:50:28.582Z,7.35
2024-02-24T07:52:57.197Z,7.36
2024-02-24T07:55:25.334Z,7.70
2024-02-24T07:57:53.854Z,9.18
2024-02-24T08:00:23.734Z,10.67
2024-02-24T08:02:57.112Z,11.76
2024-02-24T08:05:25.794Z,12.80
2024-02-24T08:07:54.030Z,14.04
2024-02-24T08:10:22.230Z,14.95
2024-02-24T08:12:50.483Z,15.28
2024-02-24T08:15:19.394Z,16.39
2024-02-24T08:17:47.697Z,17.43
2024-02-24T08:20:16.134Z,17.33
2024-02-24T08:22:46.990Z,17.77
2024-02-24T08:25:15.155Z,17.76
2024-02-24T08:27:43.400Z,17.57
2024-02-24T08:30:13.171Z,16.86
2024-02-24T08:32:41.521Z,15.98
2024-02-24T08:35:10.185Z,14.98
2024-02-24T08:37:38.579Z,14.19
2024-02-24T08:40:07.398Z,13.27
2024-02-24T08:42:35.656Z,12.47
2024-02-24T08:45:05.906Z,12.12
2024-02-24T08:47:34.302Z,11.89
2024-02-24T08:50:02.634Z,11.73
2024-02-24T08:52:38.050Z,11.76
2024-02-24T08:55:14.265Z,11.77
2024-02-24T08:57:42.509Z,11.74
2024-02-24T09:00:11.413Z,11.74
2024-02-24T09:02:39.918Z,11.76
2024-02-24T09:05:09.011Z,11.97
2024-02-24T09:07:40.065Z,12.26
2024-02-24T09:10:09.552Z,12.54
2024-02-24T09:12:37.932Z,12.56
2024-02-24T09:15:07.498Z,12.92
2024-02-24T09:17:35.852Z,13.07
2024-02-24T09:20:04.767Z,13.12
2024-02-24T09:22:33.079Z,13.13
2024-02-24T09:25:02.618Z,13.20
2024-02-24T09:27:30.933Z,13.28
2024-02-24T09:29:59.384Z,13.36
2024-02-24T09:32:27.867Z,13.33
2024-02-24T09:34:56.167Z,13.23
2024-02-24T09:37:24.378Z,13.16
2024-02-24T09:39:52.589Z,13.37
2024-02-24T09:42:26.414Z,13.30
2024-02-24T09:45:00.659Z,13.57
2024-02-24T09:47:30.446Z,13.42
2024-02-24T09:50:00.660Z,13.35
2024-02-24T09:52:32.094Z,13.24
2024-02-24T09:55:00.544Z,13.18
2024-02-24T09:57:33.968Z,13.04
2024-02-24T10:00:03.522Z,12.80
2024-02-24T10:02:40.868Z,12.73
2024-02-24T10:05:12.217Z,12.68
2024-02-24T10:07:41.029Z,12.55
2024-02-24T10:10:11.909Z,12.59
2024-02-24T10:12:40.146Z,12.54
2024-02-24T10:15:09.146Z,12.53
2024-02-24T10:17:39.907Z,12.59
2024-02-24T10:20:09.915Z,12.63
2024-02-24T10:22:40.947Z,12.61
2024-02-24T10:25:09.368Z,12.79
2024-02-24T10:27:37.738Z,12.99
2024-02-24T10:30:10.098Z,13.08
2024-02-24T10:32:40.760Z,12.95
2024-02-24T10:35:10.065Z,12.94
2024-02-24T10:37:56.431Z,12.81
2024-02-24T10:40:26.697Z,12.71
2024-02-24T10:42:56.003Z,12.78
2024-02-24T10:45:25.940Z,12.75
2024-02-24T10:47:54.225Z,12.64
2024-02-24T10:50:22.538Z,12.44
2024-02-24T10:52:52.371Z,12.28
2024-02-24T10:55:24.035Z,12.18
2024-02-24T10:57:56.053Z,12.20
2024-02-24T11:00:32.010Z,12.21
2024-02-24T11:03:01.933Z,12.26
2024-02-24T11:05:30.509Z,12.20
2024-02-24T11:07:59.010Z,12.36
2024-02-24T11:10:34.637Z,12.34
2024-02-24T11:13:03.801Z,12.41
2024-02-24T11:15:33.395Z,12.63
2024-02-24T11:18:01.817Z,12.62
2024-02-24T11:20:38.465Z,12.64
2024-02-24T11:23:23.423Z,12.42
2024-02-24T11:26:17.504Z,12.40
2024-02-24T11:29:00.163Z,12.29
2024-02-24T11:31:35.529Z,12.36
2024-02-24T11:34:12.328Z,12.63
2024-02-24T11:36:42.904Z,12.72
2024-02-24T11:39:13.619Z,12.93
2024-02-24T11:41:42.574Z,13.13
2024-02-24T11:44:12.147Z,13.40
2024-02-24T11:46:45.037Z,13.56
2024-02-24T11:49:13.390Z,13.52
2024-02-24T11:51:44.440Z,13.72
2024-02-24T11:54:14.124Z,13.89
2024-02-24T11:56:42.731Z,13.97
2024-02-24T11:59:11.174Z,13.96
2024-02-24T12:01:39.475Z,13.83
2024-02-24T12:04:07.948Z,13.86
2024-02-24T12:06:36.244Z,13.93
2024-02-24T12:09:04.739Z,13.90
2024-02-24T12:11:36.501Z,14.04
2024-02-24T12:14:04.848Z,14.20
2024-02-24T12:16:33.491Z,14.40
2024-02-24T12:19:06.825Z,14.32
2024-02-24T12:21:34.960Z,14.46
2024-02-24T12:24:03.169Z,14.61
2024-02-24T12:26:31.640Z,14.27
2024-02-24T12:28:59.855Z,13.99
2024-02-24T12:31:28.340Z,14.38
2024-02-24T12:33:59.484Z,14.42
2024-02-24T12:36:32.388Z,14.34
2024-02-24T12:39:00.729Z,14.56
2024-02-24T12:41:31.314Z,14.71
2024-02-24T12:43:59.523Z,15.03
2024-02-24T12:46:27.699Z,15.39
2024-02-24T12:48:56.298Z,15.46
2024-02-24T12:51:27.493Z,15.11
2024-02-24T12:53:55.761Z,14.68
2024-02-24T12:56:24.034Z,14.36
2024-02-24T12:58:52.328Z,13.90
2024-02-24T13:01:20.671Z,13.74
2024-02-24T13:03:49.690Z,13.65
2024-02-24T13:06:18.115Z,13.68
2024-02-24T13:08:47.419Z,13.67
2024-02-24T13:11:15.831Z,13.62
2024-02-24T13:13:44.368Z,13.35
2024-02-24T13:16:12.661Z,13.49
2024-02-24T13:18:41.123Z,13.69
2024-02-24T13:21:09.759Z,13.57
2024-02-24T13:23:37.886Z,13.42
2024-02-24T13:26:06.073Z,13.44
2024-02-24T13:28:34.591Z,13.50
2024-02-24T13:31:02.764Z,13.57
2024-02-24T13:33:31.427Z,13.70
2024-02-24T13:36:00.180Z,13.86
2024-02-24T13:38:28.607Z,13.89
2024-02-24T13:40:56.978Z,13.82
2024-02-24T13:43:25.182Z,13.45
2024-02-24T13:45:57.170Z,13.44
2024-02-24T13:48:28.305Z,13.46
2024-02-24T13:50:56.772Z,13.23
2024-02-24T13:53:24.941Z,13.33
2024-02-24T13:55:53.190Z,13.39
2024-02-24T13:58:21.397Z,13.57
2024-02-24T14:00:49.675Z,13.98
2024-02-24T14:03:17.853Z,14.36
2024-02-24T14:05:49.445Z,14.15
2024-02-24T14:08:17.762Z,13.70
2024-02-24T14:10:45.981Z,13.61
2024-02-24T14:13:14.233Z,13.71
2024-02-24T14:15:47.934Z,13.53
2024-02-24T14:18:16.282Z,13.35
2024-02-24T14:20:44.652Z,13.41
2024-02-24T14:23:12.911Z,13.24
2024-02-24T14:25:41.590Z,13.17
2024-02-24T14:28:13.635Z,12.97
2024-02-24T14:30:44.075Z,12.87
2024-02-24T14:33:12.909Z,12.83
2024-02-24T14:35:42.867Z,12.78
2024-02-24T14:38:11.149Z,12.64
2024-02-24T14:40:39.371Z,12.63
2024-02-24T14:43:07.551Z,12.67
2024-02-24T14:45:35.726Z,12.66
2024-02-24T14:48:06.263Z,12.63
2024-02-24T14:50:34.878Z,12.62
2024-02-24T14:53:03.260Z,12.61
2024-02-24T14:55:31.460Z,12.59
2024-02-24T14:57:59.647Z,12.50
2024-02-24T15:00:28.452Z,12.48
2024-02-24T15:03:08.676Z,12.48
2024-02-24T15:05:39.224Z,12.48
2024-02-24T15:08:07.888Z,12.42
2024-02-24T15:10:36.064Z,12.38
2024-02-24T15:13:05.276Z,12.41
2024-02-24T15:15:33.571Z,12.38
2024-02-24T15:18:04.610Z,12.34
2024-02-24T15:20:33.741Z,12.29
2024-02-24T15:23:02.071Z,12.33
2024-02-24T15:25:30.159Z,12.30
2024-02-24T15:27:59.916Z,12.25
2024-02-24T15:30:28.143Z,12.31
2024-02-24T15:32:59.352Z,12.30
2024-02-24T15:35:27.911Z,12.28
2024-02-24T15:37:56.194Z,12.24
2024-02-24T15:40:42.849Z,12.25
2024-02-24T15:43:11.049Z,12.22
2024-02-24T15:45:39.187Z,12.24
2024-02-24T15:48:09.282Z,12.19
2024-02-24T15:50:37.585Z,12.13
2024-02-24T15:53:05.851Z,12.03
2024-02-24T15:55:33.990Z,12.03
2024-02-24T15:58:02.609Z,12.00
2024-02-24T16:00:33.718Z,11.96
2024-02-24T16:03:04.893Z,11.86
2024-02-24T16:05:33.679Z,11.81
2024-02-24T16:08:02.062Z,11.74
2024-02-24T16:10:30.406Z,11.65
2024-02-24T16:12:58.913Z,11.57
2024-02-24T16:15:27.299Z,11.51
2024-02-24T16:18:14.686Z,11.49
2024-02-24T16:20:44.571Z,11.41
2024-02-24T16:23:15.121Z,11.37
2024-02-24T16:25:43.460Z,11.33
2024-02-24T16:28:14.786Z,11.29
2024-02-24T16:30:43.109Z,11.26
2024-02-24T16:33:11.405Z,11.22
2024-02-24T16:35:39.703Z,11.16
2024-02-24T16:38:07.941Z,11.12
2024-02-24T16:40:36.149Z,11.09
2024-02-24T16:43:04.620Z,11.07
2024-02-24T16:45:32.916Z,11.02
2024-02-24T16:48:01.510Z,10.95
2024-02-24T16:50:29.901Z,10.87
2024-02-24T16:52:58.185Z,10.77
2024-02-24T16:55:26.346Z,10.62
2024-02-24T16:57:54.511Z,10.54
2024-02-24T17:00:22.957Z,10.42
2024-02-24T17:02:51.235Z,10.34
2024-02-24T17:05:21.987Z,10.28
2024-02-24T17:07:52.413Z,10.20
2024-02-24T17:10:20.627Z,10.13
2024-02-24T17:12:49.101Z,10.07
2024-02-24T17:15:17.332Z,10.02
2024-02-24T17:17:47.488Z,10.00
2024-02-24T17:20:16.552Z,9.97
2024-02-24T17:22:44.828Z,9.98
2024-02-24T17:25:13.042Z,9.94
2024-02-24T17:27:41.255Z,9.95
2024-02-24T17:30:10.133Z,9.89
